sensor_id;sensor_type;location;lat;lon;timestamp;P1;durP1;ratioP1;P2;durP2;ratioP2
16105;SDS011;8157;51.480;6.624;2023-06-04T00:00:02;1.40;;;1.10;;
16105;SDS011;8157;51.480;6.624;2023-06-04T00:02:30;1.20;;;1.00;;
16105;SDS011;8157;51.480;6.624;2023-06-04T00:04:59;1.00;;;1.00;;
16105;SDS011;8157;51.480;6.624;2023-06-04T00:07:27;1.00;;;1.00;;
16105;SDS011;8157;51.480;6.624;2023-06-04T00:09:54;1.20;;;1.10;;
16105;SDS011;8157;51.480;6.624;2023-06-04T00:12:21;1.07;;;1.07;;
16105;SDS011;8157;51.480;6.624;2023-06-04T00:14:48;0.97;;;0.97;;
16105;SDS011;8157;51.480;6.624;2023-06-04T00:17:15;1.00;;;1.00;;
16105;SDS011;8157;51.480;6.624;2023-06-04T00:19:42;1.20;;;1.00;;
16105;SDS011;8157;51.480;6.624;2023-06-04T00:22:11;0.90;;;0.90;;
16105;SDS011;8157;51.480;6.624;2023-06-04T00:24:39;0.83;;;0.83;;
16105;SDS011;8157;51.480;6.624;2023-06-04T00:27:07;0.93;;;0.93;;
16105;SDS011;8157;51.480;6.624;2023-06-04T00:29:35;0.80;;;0.80;;
16105;SDS011;8157;51.480;6.624;2023-06-04T00:32:03;0.90;;;0.90;;
16105;SDS011;8157;51.480;6.624;2023-06-04T00:34:30;1.07;;;0.97;;
16105;SDS011;8157;51.480;6.624;2023-06-04T00:36:57;1.67;;;0.80;;
16105;SDS011;8157;51.480;6.624;2023-06-04T00:39:27;0.90;;;0.90;;
16105;SDS011;8157;51.480;6.624;2023-06-04T00:41:55;0.60;;;0.60;;
16105;SDS011;8157;51.480;6.624;2023-06-04T00:44:22;0.90;;;0.90;;
16105;SDS011;8157;51.480;6.624;2023-06-04T00:46:50;1.33;;;0.80;;
16105;SDS011;8157;51.480;6.624;2023-06-04T00:49:19;1.03;;;0.93;;
16105;SDS011;8157;51.480;6.624;2023-06-04T00:51:47;0.93;;;0.87;;
16105;SDS011;8157;51.480;6.624;2023-06-04T00:54:16;1.10;;;1.00;;
16105;SDS011;8157;51.480;6.624;2023-06-04T00:56:46;1.07;;;0.80;;
16105;SDS011;8157;51.480;6.624;2023-06-04T00:59:14;0.77;;;0.77;;
16105;SDS011;8157;51.480;6.624;2023-06-04T01:01:43;1.13;;;1.03;;
16105;SDS011;8157;51.480;6.624;2023-06-04T01:04:17;0.80;;;0.80;;
16105;SDS011;8157;51.480;6.624;2023-06-04T01:06:50;0.83;;;0.83;;
16105;SDS011;8157;51.480;6.624;2023-06-04T01:09:20;1.33;;;0.80;;
16105;SDS011;8157;51.480;6.624;2023-06-04T01:11:48;0.87;;;0.87;;
16105;SDS011;8157;51.480;6.624;2023-06-04T01:14:15;0.97;;;0.87;;
16105;SDS011;8157;51.480;6.624;2023-06-04T01:16:47;1.13;;;0.90;;
16105;SDS011;8157;51.480;6.624;2023-06-04T01:19:37;1.10;;;1.00;;
16105;SDS011;8157;51.480;6.624;2023-06-04T01:22:18;0.80;;;0.80;;
16105;SDS011;8157;51.480;6.624;2023-06-04T01:24:57;1.40;;;0.70;;
16105;SDS011;8157;51.480;6.624;2023-06-04T01:27:30;1.83;;;0.90;;
16105;SDS011;8157;51.480;6.624;2023-06-04T01:30:01;1.03;;;0.93;;
16105;SDS011;8157;51.480;6.624;2023-06-04T01:32:29;0.87;;;0.87;;
16105;SDS011;8157;51.480;6.624;2023-06-04T01:34:58;0.77;;;0.77;;
16105;SDS011;8157;51.480;6.624;2023-06-04T01:37:25;1.00;;;0.90;;
16105;SDS011;8157;51.480;6.624;2023-06-04T01:39:53;0.90;;;0.90;;
16105;SDS011;8157;51.480;6.624;2023-06-04T01:42:20;1.43;;;1.00;;
16105;SDS011;8157;51.480;6.624;2023-06-04T01:44:48;1.73;;;1.03;;
16105;SDS011;8157;51.480;6.624;2023-06-04T01:47:16;1.93;;;0.80;;
16105;SDS011;8157;51.480;6.624;2023-06-04T01:49:43;0.87;;;0.80;;
16105;SDS011;8157;51.480;6.624;2023-06-04T01:52:10;0.97;;;0.80;;
16105;SDS011;8157;51.480;6.624;2023-06-04T01:54:38;0.90;;;0.90;;
16105;SDS011;8157;51.480;6.624;2023-06-04T01:57:06;0.90;;;0.90;;
16105;SDS011;8157;51.480;6.624;2023-06-04T01:59:35;1.10;;;0.80;;
16105;SDS011;8157;51.480;6.624;2023-06-04T02:02:05;0.90;;;0.90;;
16105;SDS011;8157;51.480;6.624;2023-06-04T02:04:33;0.93;;;0.90;;
16105;SDS011;8157;51.480;6.624;2023-06-04T02:07:02;0.67;;;0.67;;
16105;SDS011;8157;51.480;6.624;2023-06-04T02:09:29;0.80;;;0.80;;
16105;SDS011;8157;51.480;6.624;2023-06-04T02:11:56;0.97;;;0.90;;
16105;SDS011;8157;51.480;6.624;2023-06-04T02:14:23;0.83;;;0.83;;
16105;SDS011;8157;51.480;6.624;2023-06-04T02:16:50;1.00;;;1.00;;
16105;SDS011;8157;51.480;6.624;2023-06-04T02:19:24;0.70;;;0.70;;
16105;SDS011;8157;51.480;6.624;2023-06-04T02:21:52;0.93;;;0.90;;
16105;SDS011;8157;51.480;6.624;2023-06-04T02:24:19;1.50;;;0.90;;
16105;SDS011;8157;51.480;6.624;2023-06-04T02:26:46;1.87;;;0.80;;
16105;SDS011;8157;51.480;6.624;2023-06-04T02:29:14;1.13;;;0.90;;
16105;SDS011;8157;51.480;6.624;2023-06-04T02:31:41;1.57;;;0.80;;
16105;SDS011;8157;51.480;6.624;2023-06-04T02:34:08;0.77;;;0.77;;
16105;SDS011;8157;51.480;6.624;2023-06-04T02:36:37;0.80;;;0.80;;
16105;SDS011;8157;51.480;6.624;2023-06-04T02:39:05;1.10;;;1.00;;
16105;SDS011;8157;51.480;6.624;2023-06-04T02:41:32;1.00;;;0.90;;
16105;SDS011;8157;51.480;6.624;2023-06-04T02:44:00;1.10;;;1.00;;
16105;SDS011;8157;51.480;6.624;2023-06-04T02:46:27;0.80;;;0.80;;
16105;SDS011;8157;51.480;6.624;2023-06-04T02:48:54;1.40;;;0.87;;
16105;SDS011;8157;51.480;6.624;2023-06-04T02:51:22;0.80;;;0.80;;
16105;SDS011;8157;51.480;6.624;2023-06-04T02:53:50;0.77;;;0.77;;
16105;SDS011;8157;51.480;6.624;2023-06-04T02:56:18;0.90;;;0.90;;
16105;SDS011;8157;51.480;6.624;2023-06-04T02:58:48;0.80;;;0.80;;
16105;SDS011;8157;51.480;6.624;2023-06-04T03:01:17;0.80;;;0.80;;
16105;SDS011;8157;51.480;6.624;2023-06-04T03:03:46;1.00;;;0.90;;
16105;SDS011;8157;51.480;6.624;2023-06-04T03:06:14;1.57;;;0.77;;
16105;SDS011;8157;51.480;6.624;2023-06-04T03:08:43;1.07;;;1.00;;
16105;SDS011;8157;51.480;6.624;2023-06-04T03:11:12;2.70;;;0.97;;
16105;SDS011;8157;51.480;6.624;2023-06-04T03:13:40;0.80;;;0.80;;
16105;SDS011;8157;51.480;6.624;2023-06-04T03:16:07;1.53;;;0.80;;
16105;SDS011;8157;51.480;6.624;2023-06-04T03:18:35;0.70;;;0.70;;
16105;SDS011;8157;51.480;6.624;2023-06-04T03:21:03;1.00;;;0.90;;
16105;SDS011;8157;51.480;6.624;2023-06-04T03:23:31;1.07;;;1.00;;
16105;SDS011;8157;51.480;6.624;2023-06-04T03:26:00;0.97;;;0.90;;
16105;SDS011;8157;51.480;6.624;2023-06-04T03:28:30;1.00;;;0.90;;
16105;SDS011;8157;51.480;6.624;2023-06-04T03:31:01;1.03;;;0.90;;
16105;SDS011;8157;51.480;6.624;2023-06-04T03:33:28;1.60;;;0.90;;
16105;SDS011;8157;51.480;6.624;2023-06-04T03:35:56;1.33;;;1.00;;
16105;SDS011;8157;51.480;6.624;2023-06-04T03:38:24;1.07;;;0.90;;
16105;SDS011;8157;51.480;6.624;2023-06-04T03:40:51;1.00;;;0.90;;
16105;SDS011;8157;51.480;6.624;2023-06-04T03:43:19;0.77;;;0.77;;
16105;SDS011;8157;51.480;6.624;2023-06-04T03:45:49;1.00;;;1.00;;
16105;SDS011;8157;51.480;6.624;2023-06-04T03:48:17;0.70;;;0.70;;
16105;SDS011;8157;51.480;6.624;2023-06-04T03:50:44;0.80;;;0.80;;
16105;SDS011;8157;51.480;6.624;2023-06-04T03:53:15;1.57;;;1.03;;
16105;SDS011;8157;51.480;6.624;2023-06-04T03:55:43;1.73;;;0.90;;
16105;SDS011;8157;51.480;6.624;2023-06-04T03:58:10;1.90;;;0.90;;
16105;SDS011;8157;51.480;6.624;2023-06-04T04:00:42;0.90;;;0.90;;
16105;SDS011;8157;51.480;6.624;2023-06-04T04:03:11;1.30;;;0.97;;
16105;SDS011;8157;51.480;6.624;2023-06-04T04:05:39;0.80;;;0.80;;
16105;SDS011;8157;51.480;6.624;2023-06-04T04:08:07;0.80;;;0.80;;
16105;SDS011;8157;51.480;6.624;2023-06-04T04:10:34;0.93;;;0.93;;
16105;SDS011;8157;51.480;6.624;2023-06-04T04:13:06;1.23;;;1.03;;
16105;SDS011;8157;51.480;6.624;2023-06-04T04:15:37;1.10;;;1.00;;
16105;SDS011;8157;51.480;6.624;2023-06-04T04:18:05;0.90;;;0.90;;
16105;SDS011;8157;51.480;6.624;2023-06-04T04:20:35;1.27;;;0.80;;
16105;SDS011;8157;51.480;6.624;2023-06-04T04:23:06;1.10;;;0.80;;
16105;SDS011;8157;51.480;6.624;2023-06-04T04:25:35;1.13;;;0.97;;
16105;SDS011;8157;51.480;6.624;2023-06-04T04:28:05;0.97;;;0.97;;
16105;SDS011;8157;51.480;6.624;2023-06-04T04:30:33;0.87;;;0.87;;
16105;SDS011;8157;51.480;6.624;2023-06-04T04:33:02;1.10;;;1.00;;
16105;SDS011;8157;51.480;6.624;2023-06-04T04:35:39;1.60;;;1.00;;
16105;SDS011;8157;51.480;6.624;2023-06-04T04:38:08;2.17;;;1.03;;
16105;SDS011;8157;51.480;6.624;2023-06-04T04:40:42;0.90;;;0.90;;
16105;SDS011;8157;51.480;6.624;2023-06-04T04:43:12;1.20;;;1.07;;
16105;SDS011;8157;51.480;6.624;2023-06-04T04:45:40;1.37;;;1.00;;
16105;SDS011;8157;51.480;6.624;2023-06-04T04:48:10;1.67;;;1.00;;
16105;SDS011;8157;51.480;6.624;2023-06-04T04:50:38;0.93;;;0.87;;
16105;SDS011;8157;51.480;6.624;2023-06-04T04:53:07;1.00;;;1.00;;
16105;SDS011;8157;51.480;6.624;2023-06-04T04:55:36;1.77;;;0.90;;
16105;SDS011;8157;51.480;6.624;2023-06-04T04:58:03;3.60;;;0.93;;
16105;SDS011;8157;51.480;6.624;2023-06-04T05:00:31;1.10;;;1.00;;
16105;SDS011;8157;51.480;6.624;2023-06-04T05:02:59;1.20;;;1.00;;
16105;SDS011;8157;51.480;6.624;2023-06-04T05:05:27;3.20;;;1.00;;
16105;SDS011;8157;51.480;6.624;2023-06-04T05:07:56;1.00;;;0.90;;
16105;SDS011;8157;51.480;6.624;2023-06-04T05:10:29;1.97;;;1.20;;
16105;SDS011;8157;51.480;6.624;2023-06-04T05:12:58;1.63;;;1.13;;
16105;SDS011;8157;51.480;6.624;2023-06-04T05:15:34;1.10;;;1.03;;
16105;SDS011;8157;51.480;6.624;2023-06-04T05:18:02;2.00;;;1.00;;
16105;SDS011;8157;51.480;6.624;2023-06-04T05:20:33;1.60;;;1.50;;
16105;SDS011;8157;51.480;6.624;2023-06-04T05:23:06;1.40;;;1.30;;
16105;SDS011;8157;51.480;6.624;2023-06-04T05:25:34;0.90;;;0.90;;
16105;SDS011;8157;51.480;6.624;2023-06-04T05:28:03;1.10;;;1.10;;
16105;SDS011;8157;51.480;6.624;2023-06-04T05:30:32;1.40;;;1.30;;
16105;SDS011;8157;51.480;6.624;2023-06-04T05:33:00;1.27;;;1.00;;
16105;SDS011;8157;51.480;6.624;2023-06-04T05:35:28;1.23;;;1.13;;
16105;SDS011;8157;51.480;6.624;2023-06-04T05:37:59;1.40;;;1.27;;
16105;SDS011;8157;51.480;6.624;2023-06-04T05:40:29;1.40;;;1.30;;
16105;SDS011;8157;51.480;6.624;2023-06-04T05:42:56;1.33;;;1.00;;
16105;SDS011;8157;51.480;6.624;2023-06-04T05:45:23;1.83;;;1.30;;
16105;SDS011;8157;51.480;6.624;2023-06-04T05:47:53;1.20;;;1.10;;
16105;SDS011;8157;51.480;6.624;2023-06-04T05:50:21;1.20;;;1.13;;
16105;SDS011;8157;51.480;6.624;2023-06-04T05:52:49;1.47;;;1.20;;
16105;SDS011;8157;51.480;6.624;2023-06-04T05:55:16;1.57;;;1.20;;
16105;SDS011;8157;51.480;6.624;2023-06-04T05:57:44;1.63;;;1.00;;
16105;SDS011;8157;51.480;6.624;2023-06-04T06:00:12;1.20;;;1.13;;
16105;SDS011;8157;51.480;6.624;2023-06-04T06:02:39;2.17;;;1.30;;
16105;SDS011;8157;51.480;6.624;2023-06-04T06:05:18;1.17;;;1.13;;
16105;SDS011;8157;51.480;6.624;2023-06-04T06:07:46;1.40;;;1.30;;
16105;SDS011;8157;51.480;6.624;2023-06-04T06:10:13;1.10;;;1.10;;
16105;SDS011;8157;51.480;6.624;2023-06-04T06:12:41;1.33;;;1.10;;
16105;SDS011;8157;51.480;6.624;2023-06-04T06:15:10;1.40;;;1.30;;
16105;SDS011;8157;51.480;6.624;2023-06-04T06:17:39;2.63;;;1.07;;
16105;SDS011;8157;51.480;6.624;2023-06-04T06:20:07;1.57;;;1.10;;
16105;SDS011;8157;51.480;6.624;2023-06-04T06:22:35;1.30;;;1.20;;
16105;SDS011;8157;51.480;6.624;2023-06-04T06:25:03;1.33;;;1.17;;
16105;SDS011;8157;51.480;6.624;2023-06-04T06:27:37;1.50;;;1.40;;
16105;SDS011;8157;51.480;6.624;2023-06-04T06:30:05;1.23;;;1.23;;
16105;SDS011;8157;51.480;6.624;2023-06-04T06:32:34;1.37;;;1.20;;
16105;SDS011;8157;51.480;6.624;2023-06-04T06:35:01;1.50;;;1.40;;
16105;SDS011;8157;51.480;6.624;2023-06-04T06:37:28;3.20;;;1.40;;
16105;SDS011;8157;51.480;6.624;2023-06-04T06:39:55;3.80;;;1.13;;
16105;SDS011;8157;51.480;6.624;2023-06-04T06:42:22;2.20;;;1.30;;
16105;SDS011;8157;51.480;6.624;2023-06-04T06:44:50;2.27;;;1.50;;
16105;SDS011;8157;51.480;6.624;2023-06-04T06:47:17;1.07;;;1.00;;
16105;SDS011;8157;51.480;6.624;2023-06-04T06:49:45;1.93;;;1.30;;
16105;SDS011;8157;51.480;6.624;2023-06-04T06:52:12;1.50;;;1.40;;
16105;SDS011;8157;51.480;6.624;2023-06-04T06:54:40;1.40;;;1.30;;
16105;SDS011;8157;51.480;6.624;2023-06-04T06:57:07;3.00;;;1.53;;
16105;SDS011;8157;51.480;6.624;2023-06-04T06:59:34;1.33;;;1.00;;
16105;SDS011;8157;51.480;6.624;2023-06-04T07:02:01;1.97;;;1.20;;
16105;SDS011;8157;51.480;6.624;2023-06-04T07:04:29;2.07;;;1.30;;
16105;SDS011;8157;51.480;6.624;2023-06-04T07:06:57;1.20;;;1.20;;
16105;SDS011;8157;51.480;6.624;2023-06-04T07:09:24;1.40;;;1.30;;
16105;SDS011;8157;51.480;6.624;2023-06-04T07:11:52;2.40;;;1.47;;
16105;SDS011;8157;51.480;6.624;2023-06-04T07:14:19;1.77;;;1.40;;
16105;SDS011;8157;51.480;6.624;2023-06-04T07:16:47;1.60;;;1.42;;
16105;SDS011;8157;51.480;6.624;2023-06-04T07:19:14;2.30;;;1.30;;
16105;SDS011;8157;51.480;6.624;2023-06-04T07:21:41;1.50;;;1.40;;
16105;SDS011;8157;51.480;6.624;2023-06-04T07:24:10;1.20;;;1.20;;
16105;SDS011;8157;51.480;6.624;2023-06-04T07:26:37;1.50;;;1.40;;
16105;SDS011;8157;51.480;6.624;2023-06-04T07:29:04;1.35;;;1.35;;
16105;SDS011;8157;51.480;6.624;2023-06-04T07:31:31;1.35;;;1.30;;
16105;SDS011;8157;51.480;6.624;2023-06-04T07:33:58;2.13;;;1.27;;
16105;SDS011;8157;51.480;6.624;2023-06-04T07:36:25;1.40;;;1.30;;
16105;SDS011;8157;51.480;6.624;2023-06-04T07:38:53;1.60;;;1.50;;
16105;SDS011;8157;51.480;6.624;2023-06-04T07:41:22;1.50;;;1.40;;
16105;SDS011;8157;51.480;6.624;2023-06-04T07:43:50;1.30;;;1.30;;
16105;SDS011;8157;51.480;6.624;2023-06-04T07:46:17;2.75;;;1.30;;
16105;SDS011;8157;51.480;6.624;2023-06-04T07:48:44;1.33;;;1.33;;
16105;SDS011;8157;51.480;6.624;2023-06-04T07:51:12;1.60;;;1.50;;
16105;SDS011;8157;51.480;6.624;2023-06-04T07:53:40;2.10;;;1.50;;
16105;SDS011;8157;51.480;6.624;2023-06-04T07:56:07;1.52;;;1.40;;
16105;SDS011;8157;51.480;6.624;2023-06-04T07:58:36;1.42;;;1.40;;
16105;SDS011;8157;51.480;6.624;2023-06-04T08:01:03;1.50;;;1.40;;
16105;SDS011;8157;51.480;6.624;2023-06-04T08:03:30;2.15;;;1.50;;
16105;SDS011;8157;51.480;6.624;2023-06-04T08:05:58;1.58;;;1.48;;
16105;SDS011;8157;51.480;6.624;2023-06-04T08:08:26;1.63;;;1.50;;
16105;SDS011;8157;51.480;6.624;2023-06-04T08:10:53;2.03;;;1.58;;
16105;SDS011;8157;51.480;6.624;2023-06-04T08:13:20;1.55;;;1.42;;
16105;SDS011;8157;51.480;6.624;2023-06-04T08:15:49;1.70;;;1.58;;
16105;SDS011;8157;51.480;6.624;2023-06-04T08:18:15;1.20;;;1.20;;
16105;SDS011;8157;51.480;6.624;2023-06-04T08:20:43;1.42;;;1.40;;
16105;SDS011;8157;51.480;6.624;2023-06-04T08:23:11;1.33;;;1.23;;
16105;SDS011;8157;51.480;6.624;2023-06-04T08:25:38;1.63;;;1.52;;
16105;SDS011;8157;51.480;6.624;2023-06-04T08:28:06;1.90;;;1.73;;
16105;SDS011;8157;51.480;6.624;2023-06-04T08:30:34;1.70;;;1.60;;
16105;SDS011;8157;51.480;6.624;2023-06-04T08:33:03;1.50;;;1.40;;
16105;SDS011;8157;51.480;6.624;2023-06-04T08:35:30;1.60;;;1.45;;
16105;SDS011;8157;51.480;6.624;2023-06-04T08:37:57;1.50;;;1.40;;
16105;SDS011;8157;51.480;6.624;2023-06-04T08:40:25;1.90;;;1.30;;
16105;SDS011;8157;51.480;6.624;2023-06-04T08:42:52;1.48;;;1.48;;
16105;SDS011;8157;51.480;6.624;2023-06-04T08:45:24;2.35;;;1.50;;
16105;SDS011;8157;51.480;6.624;2023-06-04T08:47:52;2.92;;;1.70;;
16105;SDS011;8157;51.480;6.624;2023-06-04T08:50:22;1.67;;;1.58;;
16105;SDS011;8157;51.480;6.624;2023-06-04T08:52:51;1.63;;;1.52;;
16105;SDS011;8157;51.480;6.624;2023-06-04T08:55:21;1.33;;;1.33;;
16105;SDS011;8157;51.480;6.624;2023-06-04T08:57:49;2.22;;;1.48;;
16105;SDS011;8157;51.480;6.624;2023-06-04T09:00:17;1.80;;;1.70;;
16105;SDS011;8157;51.480;6.624;2023-06-04T09:02:45;1.85;;;1.70;;
16105;SDS011;8157;51.480;6.624;2023-06-04T09:05:17;1.48;;;1.38;;
16105;SDS011;8157;51.480;6.624;2023-06-04T09:07:47;2.30;;;1.70;;
16105;SDS011;8157;51.480;6.624;2023-06-04T09:10:18;1.67;;;1.58;;
16105;SDS011;8157;51.480;6.624;2023-06-04T09:12:47;1.40;;;1.40;;
16105;SDS011;8157;51.480;6.624;2023-06-04T09:15:17;1.70;;;1.60;;
16105;SDS011;8157;51.480;6.624;2023-06-04T09:17:44;1.60;;;1.50;;
16105;SDS011;8157;51.480;6.624;2023-06-04T09:20:18;1.70;;;1.60;;
16105;SDS011;8157;51.480;6.624;2023-06-04T09:22:45;2.47;;;1.70;;
16105;SDS011;8157;51.480;6.624;2023-06-04T09:25:21;2.05;;;1.50;;
16105;SDS011;8157;51.480;6.624;2023-06-04T09:27:50;1.58;;;1.48;;
16105;SDS011;8157;51.480;6.624;2023-06-04T09:30:18;1.73;;;1.63;;
16105;SDS011;8157;51.480;6.624;2023-06-04T09:32:45;2.15;;;1.50;;
16105;SDS011;8157;51.480;6.624;2023-06-04T09:35:12;1.80;;;1.70;;
16105;SDS011;8157;51.480;6.624;2023-06-04T09:37:41;1.63;;;1.60;;
16105;SDS011;8157;51.480;6.624;2023-06-04T09:40:11;2.95;;;1.90;;
16105;SDS011;8157;51.480;6.624;2023-06-04T09:42:42;1.98;;;1.73;;
16105;SDS011;8157;51.480;6.624;2023-06-04T09:45:10;2.00;;;1.80;;
16105;SDS011;8157;51.480;6.624;2023-06-04T09:47:38;2.00;;;1.88;;
16105;SDS011;8157;51.480;6.624;2023-06-04T09:50:07;1.65;;;1.55;;
16105;SDS011;8157;51.480;6.624;2023-06-04T09:52:35;1.83;;;1.70;;
16105;SDS011;8157;51.480;6.624;2023-06-04T09:55:03;2.28;;;1.90;;
16105;SDS011;8157;51.480;6.624;2023-06-04T09:57:45;1.80;;;1.70;;
16105;SDS011;8157;51.480;6.624;2023-06-04T10:00:13;1.80;;;1.70;;
16105;SDS011;8157;51.480;6.624;2023-06-04T10:02:43;2.25;;;1.88;;
16105;SDS011;8157;51.480;6.624;2023-06-04T10:05:11;2.03;;;1.92;;
16105;SDS011;8157;51.480;6.624;2023-06-04T10:07:41;2.35;;;1.95;;
16105;SDS011;8157;51.480;6.624;2023-06-04T10:10:11;2.10;;;2.00;;
16105;SDS011;8157;51.480;6.624;2023-06-04T10:12:41;1.80;;;1.70;;
16105;SDS011;8157;51.480;6.624;2023-06-04T10:15:11;1.80;;;1.70;;
16105;SDS011;8157;51.480;6.624;2023-06-04T10:17:39;1.90;;;1.80;;
16105;SDS011;8157;51.480;6.624;2023-06-04T10:20:06;2.40;;;2.03;;
16105;SDS011;8157;51.480;6.624;2023-06-04T10:22:35;1.95;;;1.80;;
16105;SDS011;8157;51.480;6.624;2023-06-04T10:25:05;1.88;;;1.77;;
16105;SDS011;8157;51.480;6.624;2023-06-04T10:27:33;1.83;;;1.73;;
16105;SDS011;8157;51.480;6.624;2023-06-04T10:30:02;3.05;;;1.60;;
16105;SDS011;8157;51.480;6.624;2023-06-04T10:32:32;1.80;;;1.70;;
16105;SDS011;8157;51.480;6.624;2023-06-04T10:35:03;2.10;;;2.00;;
16105;SDS011;8157;51.480;6.624;2023-06-04T10:37:33;1.73;;;1.63;;
16105;SDS011;8157;51.480;6.624;2023-06-04T10:40:00;2.17;;;1.63;;
16105;SDS011;8157;51.480;6.624;2023-06-04T10:42:37;2.88;;;1.50;;
16105;SDS011;8157;51.480;6.624;2023-06-04T10:45:06;1.80;;;1.70;;
16105;SDS011;8157;51.480;6.624;2023-06-04T10:47:36;1.60;;;1.60;;
16105;SDS011;8157;51.480;6.624;2023-06-04T10:50:07;1.90;;;1.80;;
16105;SDS011;8157;51.480;6.624;2023-06-04T10:52:35;2.50;;;1.63;;
16105;SDS011;8157;51.480;6.624;2023-06-04T10:55:03;1.88;;;1.77;;
16105;SDS011;8157;51.480;6.624;2023-06-04T10:57:31;2.22;;;2.00;;
16105;SDS011;8157;51.480;6.624;2023-06-04T10:59:59;2.10;;;2.00;;
16105;SDS011;8157;51.480;6.624;2023-06-04T11:02:30;1.88;;;1.77;;
16105;SDS011;8157;51.480;6.624;2023-06-04T11:05:02;2.70;;;1.73;;
16105;SDS011;8157;51.480;6.624;2023-06-04T11:07:40;1.77;;;1.67;;
16105;SDS011;8157;51.480;6.624;2023-06-04T11:10:08;3.15;;;1.98;;
16105;SDS011;8157;51.480;6.624;2023-06-04T11:12:43;2.03;;;1.83;;
16105;SDS011;8157;51.480;6.624;2023-06-04T11:15:11;6.72;;;1.60;;
16105;SDS011;8157;51.480;6.624;2023-06-04T11:17:48;1.48;;;1.48;;
16105;SDS011;8157;51.480;6.624;2023-06-04T11:20:18;2.95;;;1.48;;
16105;SDS011;8157;51.480;6.624;2023-06-04T11:22:53;1.35;;;1.33;;
16105;SDS011;8157;51.480;6.624;2023-06-04T11:25:21;1.67;;;1.58;;
16105;SDS011;8157;51.480;6.624;2023-06-04T11:27:51;1.67;;;1.60;;
16105;SDS011;8157;51.480;6.624;2023-06-04T11:30:19;1.50;;;1.40;;
16105;SDS011;8157;51.480;6.624;2023-06-04T11:32:47;1.67;;;1.58;;
16105;SDS011;8157;51.480;6.624;2023-06-04T11:35:14;2.08;;;1.88;;
16105;SDS011;8157;51.480;6.624;2023-06-04T11:37:52;3.13;;;1.50;;
16105;SDS011;8157;51.480;6.624;2023-06-04T11:40:20;1.70;;;1.60;;
16105;SDS011;8157;51.480;6.624;2023-06-04T11:42:47;1.92;;;1.65;;
16105;SDS011;8157;51.480;6.624;2023-06-04T11:45:15;1.60;;;1.50;;
16105;SDS011;8157;51.480;6.624;2023-06-04T11:47:44;1.48;;;1.48;;
16105;SDS011;8157;51.480;6.624;2023-06-04T11:50:13;1.55;;;1.45;;
16105;SDS011;8157;51.480;6.624;2023-06-04T11:52:40;2.03;;;1.40;;
16105;SDS011;8157;51.480;6.624;2023-06-04T11:55:10;1.60;;;1.50;;
16105;SDS011;8157;51.480;6.624;2023-06-04T11:57:37;1.70;;;1.60;;
16105;SDS011;8157;51.480;6.624;2023-06-04T12:00:07;1.63;;;1.52;;
16105;SDS011;8157;51.480;6.624;2023-06-04T12:02:35;1.70;;;1.60;;
16105;SDS011;8157;51.480;6.624;2023-06-04T12:05:12;1.90;;;1.60;;
16105;SDS011;8157;51.480;6.624;2023-06-04T12:07:39;1.90;;;1.80;;
16105;SDS011;8157;51.480;6.624;2023-06-04T12:10:09;3.72;;;1.60;;
16105;SDS011;8157;51.480;6.624;2023-06-04T12:12:36;2.78;;;2.58;;
16105;SDS011;8157;51.480;6.624;2023-06-04T12:15:06;1.85;;;1.75;;
16105;SDS011;8157;51.480;6.624;2023-06-04T12:17:35;1.95;;;1.80;;
16105;SDS011;8157;51.480;6.624;2023-06-04T12:20:03;1.67;;;1.58;;
16105;SDS011;8157;51.480;6.624;2023-06-04T12:22:31;1.48;;;1.38;;
16105;SDS011;8157;51.480;6.624;2023-06-04T12:24:58;1.48;;;1.38;;
16105;SDS011;8157;51.480;6.624;2023-06-04T12:27:29;1.80;;;1.70;;
16105;SDS011;8157;51.480;6.624;2023-06-04T12:29:57;2.33;;;1.58;;
16105;SDS011;8157;51.480;6.624;2023-06-04T12:32:25;1.52;;;1.42;;
16105;SDS011;8157;51.480;6.624;2023-06-04T12:34:53;1.48;;;1.38;;
16105;SDS011;8157;51.480;6.624;2023-06-04T12:37:21;1.60;;;1.50;;
16105;SDS011;8157;51.480;6.624;2023-06-04T12:39:50;1.58;;;1.48;;
16105;SDS011;8157;51.480;6.624;2023-06-04T12:42:17;2.38;;;1.50;;
16105;SDS011;8157;51.480;6.624;2023-06-04T12:44:47;1.60;;;1.50;;
16105;SDS011;8157;51.480;6.624;2023-06-04T12:47:15;1.58;;;1.52;;
16105;SDS011;8157;51.480;6.624;2023-06-04T12:49:43;1.88;;;1.40;;
16105;SDS011;8157;51.480;6.624;2023-06-04T12:52:11;1.70;;;1.60;;
16105;SDS011;8157;51.480;6.624;2023-06-04T12:54:39;1.67;;;1.50;;
16105;SDS011;8157;51.480;6.624;2023-06-04T12:57:06;1.80;;;1.70;;
16105;SDS011;8157;51.480;6.624;2023-06-04T12:59:34;2.13;;;1.52;;
16105;SDS011;8157;51.480;6.624;2023-06-04T13:02:03;1.70;;;1.60;;
16105;SDS011;8157;51.480;6.624;2023-06-04T13:04:30;1.30;;;1.30;;
16105;SDS011;8157;51.480;6.624;2023-06-04T13:06:57;1.40;;;1.30;;
16105;SDS011;8157;51.480;6.624;2023-06-04T13:09:25;3.55;;;1.20;;
16105;SDS011;8157;51.480;6.624;2023-06-04T13:11:53;1.52;;;1.42;;
16105;SDS011;8157;51.480;6.624;2023-06-04T13:14:20;1.38;;;1.38;;
16105;SDS011;8157;51.480;6.624;2023-06-04T13:16:52;2.67;;;1.30;;
16105;SDS011;8157;51.480;6.624;2023-06-04T13:19:20;1.27;;;1.27;;
16105;SDS011;8157;51.480;6.624;2023-06-04T13:21:47;2.07;;;1.40;;
16105;SDS011;8157;51.480;6.624;2023-06-04T13:24:14;1.43;;;1.30;;
16105;SDS011;8157;51.480;6.624;2023-06-04T13:26:45;1.27;;;1.20;;
16105;SDS011;8157;51.480;6.624;2023-06-04T13:29:12;1.33;;;1.23;;
16105;SDS011;8157;51.480;6.624;2023-06-04T13:31:41;2.17;;;1.30;;
16105;SDS011;8157;51.480;6.624;2023-06-04T13:34:08;1.30;;;1.20;;
16105;SDS011;8157;51.480;6.624;2023-06-04T13:36:37;1.67;;;1.57;;
16105;SDS011;8157;51.480;6.624;2023-06-04T13:39:04;1.50;;;1.40;;
16105;SDS011;8157;51.480;6.624;2023-06-04T13:41:32;1.83;;;1.23;;
16105;SDS011;8157;51.480;6.624;2023-06-04T13:43:59;1.73;;;1.30;;
16105;SDS011;8157;51.480;6.624;2023-06-04T13:46:26;2.23;;;1.30;;
16105;SDS011;8157;51.480;6.624;2023-06-04T13:48:53;1.47;;;1.37;;
16105;SDS011;8157;51.480;6.624;2023-06-04T13:51:20;1.47;;;1.33;;
16105;SDS011;8157;51.480;6.624;2023-06-04T13:53:48;1.10;;;1.10;;
16105;SDS011;8157;51.480;6.624;2023-06-04T13:56:17;1.50;;;1.33;;
16105;SDS011;8157;51.480;6.624;2023-06-04T13:58:44;1.30;;;1.20;;
16105;SDS011;8157;51.480;6.624;2023-06-04T14:01:11;2.10;;;1.40;;
16105;SDS011;8157;51.480;6.624;2023-06-04T14:03:38;1.13;;;1.13;;
16105;SDS011;8157;51.480;6.624;2023-06-04T14:06:05;1.33;;;1.23;;
16105;SDS011;8157;51.480;6.624;2023-06-04T14:08:32;1.40;;;1.30;;
16105;SDS011;8157;51.480;6.624;2023-06-04T14:11:01;1.80;;;1.30;;
16105;SDS011;8157;51.480;6.624;2023-06-04T14:13:28;1.53;;;1.43;;
16105;SDS011;8157;51.480;6.624;2023-06-04T14:15:55;1.73;;;1.10;;
16105;SDS011;8157;51.480;6.624;2023-06-04T14:18:22;1.53;;;1.30;;
16105;SDS011;8157;51.480;6.624;2023-06-04T14:20:49;1.10;;;1.10;;
16105;SDS011;8157;51.480;6.624;2023-06-04T14:23:17;1.40;;;1.20;;
16105;SDS011;8157;51.480;6.624;2023-06-04T14:25:44;1.63;;;1.40;;
16105;SDS011;8157;51.480;6.624;2023-06-04T14:28:12;2.23;;;1.10;;
16105;SDS011;8157;51.480;6.624;2023-06-04T14:30:40;1.50;;;1.40;;
16105;SDS011;8157;51.480;6.624;2023-06-04T14:33:07;3.13;;;1.40;;
16105;SDS011;8157;51.480;6.624;2023-06-04T14:35:34;1.97;;;1.20;;
16105;SDS011;8157;51.480;6.624;2023-06-04T14:38:01;1.93;;;1.50;;
16105;SDS011;8157;51.480;6.624;2023-06-04T14:40:29;1.40;;;1.30;;
16105;SDS011;8157;51.480;6.624;2023-06-04T14:42:56;1.60;;;1.47;;
16105;SDS011;8157;51.480;6.624;2023-06-04T14:45:26;1.30;;;1.20;;
16105;SDS011;8157;51.480;6.624;2023-06-04T14:47:52;1.27;;;1.20;;
16105;SDS011;8157;51.480;6.624;2023-06-04T14:50:20;2.20;;;2.00;;
16105;SDS011;8157;51.480;6.624;2023-06-04T14:52:47;1.60;;;1.50;;
16105;SDS011;8157;51.480;6.624;2023-06-04T14:55:14;1.80;;;1.37;;
16105;SDS011;8157;51.480;6.624;2023-06-04T14:57:42;2.33;;;1.30;;
16105;SDS011;8157;51.480;6.624;2023-06-04T15:00:10;1.40;;;1.30;;
16105;SDS011;8157;51.480;6.624;2023-06-04T15:02:38;3.20;;;1.30;;
16105;SDS011;8157;51.480;6.624;2023-06-04T15:05:06;1.53;;;1.43;;
16105;SDS011;8157;51.480;6.624;2023-06-04T15:07:33;1.50;;;1.40;;